createdAt,value
2022-08-04T00:00:18.265Z,2.22
2022-08-04T00:03:13.966Z,2.22
2022-08-04T00:05:40.943Z,1.85
2022-08-04T00:08:14.812Z,1.85
2022-08-04T00:10:48.540Z,2.10
2022-08-04T00:13:17.171Z,1.88
2022-08-04T00:15:44.796Z,1.92
2022-08-04T00:18:16.569Z,1.80
2022-08-04T00:20:44.333Z,1.75
2022-08-04T00:23:11.594Z,1.52
2022-08-04T00:25:41.709Z,1.48
2022-08-04T00:28:09.447Z,1.65
2022-08-04T00:30:36.868Z,1.38
2022-08-04T00:33:07.576Z,1.58
2022-08-04T00:35:35.698Z,1.30
2022-08-04T00:38:03.544Z,1.63
2022-08-04T00:41:03.171Z,1.88
2022-08-04T00:43:37.808Z,1.63
2022-08-04T00:46:36.716Z,1.73
2022-08-04T00:49:36.827Z,1.58
2022-08-04T00:52:37.732Z,1.67
2022-08-04T00:55:10.897Z,1.75
2022-08-04T00:58:00.184Z,1.67
2022-08-04T01:00:33.065Z,1.75
2022-08-04T01:03:32.264Z,1.77
2022-08-04T01:06:04.106Z,1.60
2022-08-04T01:08:31.178Z,1.88
2022-08-04T01:11:12.849Z,1.58
2022-08-04T01:14:10.302Z,2.10
2022-08-04T01:16:48.187Z,2.03
2022-08-04T01:19:41.466Z,1.70
2022-08-04T01:22:33.496Z,1.33
2022-08-04T01:25:42.550Z,2.58
2022-08-04T01:28:27.284Z,1.90
2022-08-04T01:30:58.373Z,1.70
2022-08-04T01:33:29.287Z,2.00
2022-08-04T01:35:59.832Z,3.15
2022-08-04T01:38:36.994Z,1.67
2022-08-04T01:41:06.671Z,1.98
2022-08-04T01:43:40.014Z,1.98
2022-08-04T01:46:07.825Z,2.88
2022-08-04T01:48:37.651Z,1.88
2022-08-04T01:51:08.966Z,1.98
2022-08-04T01:53:41.248Z,1.75
2022-08-04T01:56:13.030Z,1.77
2022-08-04T01:58:41.207Z,1.77
2022-08-04T02:01:13.867Z,1.88
2022-08-04T02:04:18.104Z,1.35
2022-08-04T02:07:07.467Z,1.70
2022-08-04T02:09:53.846Z,1.50
2022-08-04T02:12:39.868Z,1.90
2022-08-04T02:15:21.601Z,1.80
2022-08-04T02:20:37.912Z,1.80
2022-08-04T02:23:10.681Z,1.90
2022-08-04T02:25:48.777Z,1.60
2022-08-04T02:28:24.719Z,1.65
2022-08-04T02:31:09.811Z,1.70
2022-08-04T02:33:43.767Z,1.73
2022-08-04T02:36:31.983Z,1.80
2022-08-04T02:39:07.670Z,2.20
2022-08-04T02:41:35.105Z,1.98
2022-08-04T02:44:07.340Z,2.00
2022-08-04T02:46:36.103Z,1.92
2022-08-04T02:49:06.644Z,1.52
2022-08-04T02:51:55.134Z,1.50
2022-08-04T02:54:42.628Z,1.58
2022-08-04T02:57:11.985Z,1.40
2022-08-04T03:00:14.934Z,1.50
2022-08-04T03:03:00.619Z,1.98
2022-08-04T03:05:54.159Z,1.42
2022-08-04T03:08:42.039Z,1.80
2022-08-04T03:12:07.896Z,2.08
2022-08-04T03:14:37.795Z,2.17
2022-08-04T03:17:16.161Z,1.77
2022-08-04T03:20:12.447Z,1.83
2022-08-04T03:23:06.252Z,1.95
2022-08-04T03:26:13.356Z,1.98
2022-08-04T03:29:08.189Z,2.08
2022-08-04T03:31:41.621Z,2.75
2022-08-04T03:34:30.209Z,2.20
2022-08-04T03:37:11.834Z,1.65
2022-08-04T03:40:13.668Z,2.00
2022-08-04T03:43:57.582Z,2.38
2022-08-04T03:46:36.428Z,2.53
2022-08-04T03:49:28.366Z,2.08
2022-08-04T03:55:16.134Z,2.17
2022-08-04T03:58:16.836Z,2.03
2022-08-04T04:01:04.888Z,2.00
2022-08-04T04:03:40.750Z,1.95
2022-08-04T04:06:48.834Z,2.10
2022-08-04T04:09:24.115Z,2.35
2022-08-04T04:12:33.091Z,2.65
2022-08-04T04:15:33.164Z,1.58
2022-08-04T04:18:03.111Z,1.95
2022-08-04T04:20:52.717Z,1.98
2022-08-04T04:23:57.108Z,2.13
2022-08-04T04:26:57.108Z,1.55
2022-08-04T04:29:42.146Z,1.67
2022-08-04T04:32:23.121Z,1.65
2022-08-04T04:35:22.471Z,1.88
2022-08-04T04:38:07.051Z,1.42
2022-08-04T04:40:49.831Z,1.70
2022-08-04T04:43:52.307Z,1.60
2022-08-04T04:46:56.459Z,2.38
2022-08-04T04:49:50.028Z,2.13
2022-08-04T04:52:40.456Z,1.33
2022-08-04T04:55:21.607Z,2.75
2022-08-04T04:57:53.895Z,2.53
2022-08-04T05:00:25.158Z,1.88
2022-08-04T05:03:23.351Z,1.48
2022-08-04T05:06:07.929Z,1.83
2022-08-04T05:08:45.551Z,1.80
2022-08-04T05:11:22.139Z,1.45
2022-08-04T05:14:37.624Z,1.73
2022-08-04T05:16:53.914Z,1.38
2022-08-04T05:19:34.076Z,1.83
2022-08-04T05:22:11.191Z,1.88
2022-08-04T05:24:45.309Z,1.52
2022-08-04T05:27:28.771Z,2.00
2022-08-04T05:30:03.527Z,1.30
2022-08-04T05:32:59.194Z,1.80
2022-08-04T05:36:20.673Z,1.55
2022-08-04T05:38:57.562Z,1.80
2022-08-04T05:41:32.404Z,1.50
2022-08-04T05:44:12.533Z,2.45
2022-08-04T05:46:40.340Z,1.70
2022-08-04T05:49:10.604Z,1.23
2022-08-04T05:51:44.276Z,1.10
2022-08-04T05:54:13.291Z,1.40
2022-08-04T05:56:41.365Z,1.27
2022-08-04T05:59:10.788Z,1.35
2022-08-04T06:01:55.345Z,0.93
2022-08-04T06:04:26.984Z,2.03
2022-08-04T06:06:54.978Z,1.27
2022-08-04T06:09:22.118Z,1.52
2022-08-04T06:12:03.492Z,1.27
2022-08-04T06:14:39.442Z,1.20
2022-08-04T06:18:32.439Z,1.25
2022-08-04T06:20:19.168Z,1.52
2022-08-04T06:22:46.552Z,1.48
2022-08-04T06:25:18.027Z,1.30
2022-08-04T06:27:45.718Z,1.10
2022-08-04T06:30:14.658Z,1.63
2022-08-04T06:33:03.326Z,1.85
2022-08-04T06:35:33.044Z,1.20
2022-08-04T06:38:01.710Z,1.48
2022-08-04T06:40:33.294Z,1.48
2022-08-04T06:43:04.208Z,1.42
2022-08-04T06:45:36.892Z,1.30
2022-08-04T06:48:06.692Z,1.00
2022-08-04T06:51:29.622Z,1.13
2022-08-04T06:53:25.955Z,1.05
2022-08-04T06:55:54.675Z,1.10
2022-08-04T06:58:23.167Z,1.00
2022-08-04T07:00:50.819Z,1.20
2022-08-04T07:03:19.558Z,1.05
2022-08-04T07:05:51.391Z,1.02
2022-08-04T07:08:19.559Z,1.30
2022-08-04T07:10:46.972Z,1.50
2022-08-04T07:13:14.471Z,1.27
2022-08-04T07:15:46.647Z,1.05
2022-08-04T07:18:13.722Z,1.40
2022-08-04T07:20:45.005Z,1.20
2022-08-04T07:23:17.702Z,1.20
2022-08-04T07:26:00.574Z,1.15
2022-08-04T07:28:37.561Z,1.13
2022-08-04T07:31:06.280Z,1.60
2022-08-04T07:33:33.495Z,1.27
2022-08-04T07:36:09.095Z,1.90
2022-08-04T07:38:50.721Z,1.10
2022-08-04T07:41:40.312Z,1.35
2022-08-04T07:44:10.636Z,1.05
2022-08-04T07:46:37.752Z,1.10
2022-08-04T07:49:05.569Z,1.20
2022-08-04T07:51:35.418Z,1.20
2022-08-04T07:54:06.228Z,1.17
2022-08-04T07:56:35.471Z,1.00
2022-08-04T07:59:02.705Z,0.95
2022-08-04T08:01:30.500Z,1.88
2022-08-04T08:03:58.316Z,1.23
2022-08-04T08:06:32.362Z,1.30
2022-08-04T08:09:12.882Z,1.10
2022-08-04T08:12:35.644Z,1.15
2022-08-04T08:14:38.717Z,1.40
2022-08-04T08:17:06.155Z,1.33
2022-08-04T08:19:34.876Z,1.60
2022-08-04T08:22:02.792Z,2.28
2022-08-04T08:24:31.477Z,1.02
2022-08-04T08:27:04.572Z,1.20
2022-08-04T08:29:34.219Z,1.23
2022-08-04T08:32:07.830Z,1.00
2022-08-04T08:34:36.121Z,1.63
2022-08-04T08:37:09.355Z,1.33
2022-08-04T08:39:46.040Z,1.05
2022-08-04T08:42:26.319Z,1.25
2022-08-04T08:45:18.246Z,1.08
2022-08-04T08:48:07.348Z,1.23
2022-08-04T08:51:02.892Z,1.00
2022-08-04T08:53:50.317Z,1.52
2022-08-04T08:56:32.350Z,0.95
2022-08-04T08:59:26.411Z,0.85
2022-08-04T09:02:02.609Z,0.95
2022-08-04T09:05:07.077Z,0.80
2022-08-04T09:08:01.987Z,0.52
2022-08-04T09:10:34.455Z,1.88
2022-08-04T09:13:38.960Z,1.15
2022-08-04T09:16:21.400Z,0.98
2022-08-04T09:18:56.924Z,1.13
2022-08-04T09:21:37.493Z,1.08
2022-08-04T09:24:36.074Z,1.30
2022-08-04T09:27:13.205Z,0.90
2022-08-04T09:29:56.127Z,0.77
2022-08-04T09:32:34.950Z,0.80
2022-08-04T09:35:24.385Z,0.90
2022-08-04T09:38:11.118Z,0.90
2022-08-04T09:40:55.273Z,0.63
2022-08-04T09:44:43.072Z,1.00
2022-08-04T09:46:52.338Z,1.13
2022-08-04T09:49:32.184Z,1.13
2022-08-04T09:52:04.422Z,0.70
2022-08-04T09:54:43.700Z,0.70
2022-08-04T09:57:15.474Z,0.75
2022-08-04T09:59:54.645Z,0.63
2022-08-04T10:02:24.606Z,0.82
2022-08-04T10:04:55.077Z,0.50
2022-08-04T10:07:37.062Z,0.88
2022-08-04T10:10:19.165Z,0.63
2022-08-04T10:13:41.526Z,0.50
2022-08-04T10:16:38.859Z,0.63
2022-08-04T10:19:08.759Z,0.70
2022-08-04T10:22:27.474Z,0.77
2022-08-04T10:26:03.686Z,1.10
2022-08-04T10:28:09.181Z,0.80
2022-08-04T10:30:39.677Z,0.63
2022-08-04T10:33:23.302Z,1.20
2022-08-04T10:36:06.902Z,0.90
2022-08-04T10:39:11.993Z,0.90
2022-08-04T10:41:59.775Z,0.88
2022-08-04T10:44:41.918Z,0.90
2022-08-04T10:47:16.762Z,1.15
2022-08-04T10:49:56.224Z,0.60
2022-08-04T10:52:38.254Z,1.10
2022-08-04T10:55:21.427Z,0.90
2022-08-04T10:58:07.276Z,0.95
2022-08-04T11:00:39.071Z,0.90
2022-08-04T11:03:34.899Z,0.80
2022-08-04T11:06:05.013Z,1.05
2022-08-04T11:08:38.892Z,1.40
2022-08-04T11:11:12.141Z,1.00
2022-08-04T11:14:09.800Z,0.90
2022-08-04T11:16:55.359Z,0.80
2022-08-04T11:20:24.836Z,0.85
2022-08-04T11:23:08.161Z,1.33
2022-08-04T11:26:20.330Z,0.90
2022-08-04T11:29:03.181Z,0.75
2022-08-04T11:31:39.460Z,0.80
2022-08-04T11:34:19.595Z,1.08
2022-08-04T11:37:15.597Z,1.08
2022-08-04T11:39:50.535Z,0.93
2022-08-04T11:42:33.582Z,0.70
2022-08-04T11:45:10.640Z,1.00
2022-08-04T11:47:50.419Z,1.13
2022-08-04T11:50:39.055Z,1.30
2022-08-04T11:53:07.142Z,0.68
2022-08-04T11:56:06.979Z,0.82
2022-08-04T11:58:26.753Z,1.15
2022-08-04T12:01:17.356Z,1.10
2022-08-04T12:03:59.722Z,1.45
2022-08-04T12:06:57.057Z,1.00
2022-08-04T12:10:05.027Z,1.95
2022-08-04T12:12:52.582Z,1.08
2022-08-04T12:15:33.063Z,0.80
2022-08-04T12:18:30.849Z,1.08
2022-08-04T12:21:01.634Z,1.20
2022-08-04T12:23:37.837Z,1.40
2022-08-04T12:26:15.491Z,1.35
2022-08-04T12:29:09.114Z,1.00
2022-08-04T12:34:20.728Z,0.80
2022-08-04T12:37:09.338Z,1.27
2022-08-04T12:40:28.430Z,0.90
2022-08-04T12:42:30.268Z,0.82
2022-08-04T12:44:59.294Z,1.33
2022-08-04T12:47:29.361Z,1.30
2022-08-04T12:50:04.019Z,0.97
2022-08-04T12:55:33.651Z,0.90
2022-08-04T12:58:03.140Z,0.90
2022-08-04T13:00:40.832Z,1.42
2022-08-04T13:03:14.304Z,0.95
2022-08-04T13:05:42.248Z,0.80
2022-08-04T13:08:11.752Z,0.80
2022-08-04T13:10:44.377Z,0.88
2022-08-04T13:13:19.932Z,0.70
2022-08-04T13:16:01.598Z,0.73
2022-08-04T13:18:32.277Z,0.80
2022-08-04T13:24:10.174Z,0.65
2022-08-04T13:26:56.228Z,0.65
2022-08-04T13:30:00.749Z,1.30
2022-08-04T13:32:25.432Z,1.02
2022-08-04T13:34:55.282Z,0.75
2022-08-04T13:37:33.435Z,0.70
2022-08-04T13:40:04.854Z,0.90
2022-08-04T13:42:35.561Z,0.95
2022-08-04T13:45:10.705Z,0.70
2022-08-04T13:47:40.233Z,0.80
2022-08-04T13:50:31.131Z,0.98
2022-08-04T13:53:01.248Z,0.50
2022-08-04T13:55:36.189Z,0.93
2022-08-04T13:58:10.783Z,0.73
2022-08-04T14:00:47.413Z,0.82
2022-08-04T14:03:30.638Z,1.02
2022-08-04T14:06:21.819Z,1.00
2022-08-04T14:08:59.000Z,1.30
2022-08-04T14:12:09.879Z,0.90
2022-08-04T14:14:29.845Z,0.90
2022-08-04T14:17:27.173Z,0.70
2022-08-04T14:20:02.371Z,1.27
2022-08-04T14:22:36.279Z,0.90
2022-08-04T14:25:15.476Z,1.08
2022-08-04T14:27:44.348Z,0.80
2022-08-04T14:30:32.904Z,0.98
2022-08-04T14:34:02.713Z,1.00
2022-08-04T14:36:03.780Z,1.00
2022-08-04T14:38:46.826Z,1.02
2022-08-04T14:41:15.024Z,1.10
2022-08-04T14:43:47.720Z,0.98
2022-08-04T14:46:15.427Z,1.13
2022-08-04T14:49:10.889Z,1.00
2022-08-04T14:51:41.896Z,1.30
2022-08-04T14:54:18.808Z,1.10
2022-08-04T14:56:55.453Z,0.90
2022-08-04T14:59:24.549Z,1.05
2022-08-04T15:02:00.418Z,0.93
2022-08-04T15:04:31.724Z,0.95
2022-08-04T15:09:33.201Z,0.70
2022-08-04T15:12:04.699Z,0.80
2022-08-04T15:14:36.349Z,1.20
2022-08-04T15:17:11.974Z,0.88
2022-08-04T15:19:40.255Z,1.20
2022-08-04T15:22:07.503Z,1.00
2022-08-04T15:24:44.773Z,0.90
2022-08-04T15:27:21.057Z,0.60
2022-08-04T15:30:00.528Z,0.63
2022-08-04T15:32:31.642Z,1.00
2022-08-04T15:35:13.004Z,0.60
2022-08-04T15:40:40.787Z,0.70
2022-08-04T15:43:25.740Z,0.85
2022-08-04T15:46:02.375Z,1.15
2022-08-04T15:48:41.861Z,0.70
2022-08-04T15:51:15.173Z,0.70
2022-08-04T15:54:02.436Z,0.88
2022-08-04T15:56:31.173Z,0.80
2022-08-04T15:58:58.798Z,1.05
2022-08-04T16:01:27.656Z,0.75
2022-08-04T16:03:59.496Z,0.60
2022-08-04T16:06:29.563Z,1.25
2022-08-04T16:09:04.262Z,0.70
2022-08-04T16:11:36.873Z,0.50
2022-08-04T16:14:04.012Z,1.00
2022-08-04T16:16:51.350Z,0.73
2022-08-04T16:19:53.281Z,0.75
2022-08-04T16:22:40.492Z,0.77
2022-08-04T16:25:12.002Z,1.25
2022-08-04T16:27:41.910Z,0.80
2022-08-04T16:30:14.428Z,0.80
2022-08-04T16:32:47.442Z,0.85
2022-08-04T16:35:28.867Z,0.90
2022-08-04T16:40:44.139Z,0.60
2022-08-04T16:43:13.730Z,0.98
2022-08-04T16:45:55.729Z,0.70
2022-08-04T16:48:36.524Z,0.90
2022-08-04T16:51:14.531Z,0.68
2022-08-04T16:53:53.507Z,0.77
2022-08-04T16:56:34.376Z,0.70
2022-08-04T16:59:13.430Z,0.90
2022-08-04T17:01:51.520Z,0.70
2022-08-04T17:04:27.796Z,0.90
2022-08-04T17:07:00.331Z,0.68
2022-08-04T17:09:28.900Z,0.60
2022-08-04T17:12:02.453Z,0.60
2022-08-04T17:14:31.608Z,0.60
2022-08-04T17:17:01.603Z,0.80
2022-08-04T17:19:29.238Z,0.90
2022-08-04T17:22:06.394Z,0.50
2022-08-04T17:24:38.441Z,0.50
2022-08-04T17:29:54.085Z,0.95
2022-08-04T17:32:22.458Z,0.80
2022-08-04T17:34:59.959Z,1.05
2022-08-04T17:37:52.121Z,1.02
2022-08-04T17:40:18.027Z,0.77
2022-08-04T17:43:01.170Z,0.60
2022-08-04T17:48:24.650Z,0.70
2022-08-04T17:50:52.267Z,0.82
2022-08-04T17:54:01.643Z,0.50
2022-08-04T17:56:36.313Z,0.43
2022-08-04T17:59:52.895Z,1.50
2022-08-04T18:02:32.603Z,0.40
2022-08-04T18:05:10.755Z,0.95
2022-08-04T18:08:37.979Z,0.70
2022-08-04T18:10:51.996Z,0.80
2022-08-04T18:13:25.443Z,0.50
2022-08-04T18:16:02.426Z,0.70
2022-08-04T18:18:33.159Z,0.80
2022-08-04T18:21:03.194Z,0.60
2022-08-04T18:26:23.846Z,0.65
2022-08-04T18:31:18.352Z,0.60
2022-08-04T18:33:59.238Z,0.85
2022-08-04T18:36:32.844Z,0.70
2022-08-04T18:39:12.942Z,0.52
2022-08-04T18:42:01.052Z,0.50
2022-08-04T18:44:49.409Z,0.93
2022-08-04T18:47:23.110Z,0.77
2022-08-04T18:52:45.689Z,0.55
2022-08-04T18:55:55.356Z,0.50
2022-08-04T18:58:07.096Z,0.60
2022-08-04T19:00:38.873Z,0.50
2022-08-04T19:03:16.251Z,0.82
2022-08-04T19:05:43.834Z,0.67
2022-08-04T19:08:34.438Z,0.75
2022-08-04T19:11:37.355Z,0.60
2022-08-04T19:16:38.130Z,0.50
2022-08-04T19:19:08.080Z,0.55
2022-08-04T19:22:01.035Z,0.50
2022-08-04T19:24:32.538Z,0.50
2022-08-04T19:27:08.245Z,0.60
2022-08-04T19:29:41.089Z,0.40
2022-08-04T19:32:14.734Z,0.85
2022-08-04T19:34:47.828Z,0.50
2022-08-04T19:37:57.627Z,0.70
2022-08-04T19:43:04.905Z,0.80
2022-08-04T19:45:41.983Z,0.65
2022-08-04T19:48:19.165Z,0.47
2022-08-04T19:50:47.097Z,0.50
2022-08-04T19:53:20.126Z,0.55
2022-08-04T19:56:03.845Z,0.50
2022-08-04T19:58:31.019Z,0.60
2022-08-04T20:00:58.359Z,0.75
2022-08-04T20:04:08.327Z,0.60
2022-08-04T20:06:13.364Z,0.50
2022-08-04T20:08:48.697Z,1.10
2022-08-04T20:11:16.567Z,0.60
2022-08-04T20:16:33.949Z,0.60
2022-08-04T20:19:03.898Z,0.93
2022-08-04T20:21:53.671Z,0.50
2022-08-04T20:27:15.819Z,0.70
2022-08-04T20:30:02.159Z,0.65
2022-08-04T20:32:41.005Z,0.60
2022-08-04T20:35:08.544Z,0.60
2022-08-04T20:37:55.153Z,0.80
2022-08-04T20:40:28.008Z,0.50
2022-08-04T20:42:54.925Z,0.60
2022-08-04T20:45:56.735Z,0.80
2022-08-04T20:48:11.544Z,0.90
2022-08-04T20:50:38.431Z,0.70
2022-08-04T20:53:16.614Z,0.80
2022-08-04T20:55:55.216Z,0.77
2022-08-04T20:58:27.267Z,0.90
2022-08-04T21:00:55.577Z,0.70
2022-08-04T21:03:49.659Z,0.93
2022-08-04T21:06:10.252Z,0.60
2022-08-04T21:08:39.196Z,0.73
2022-08-04T21:11:09.040Z,0.80
2022-08-04T21:13:51.952Z,0.60
2022-08-04T21:16:53.697Z,1.02
2022-08-04T21:19:13.012Z,0.80
2022-08-04T21:21:42.324Z,1.17
2022-08-04T21:24:14.068Z,1.02
2022-08-04T21:26:42.931Z,0.80
2022-08-04T21:29:13.385Z,0.93
2022-08-04T21:31:50.990Z,0.90
2022-08-04T21:34:36.759Z,1.00
2022-08-04T21:37:06.020Z,1.20
2022-08-04T21:39:33.257Z,1.30
2022-08-04T21:42:26.551Z,0.93
2022-08-04T21:44:58.785Z,0.98
2022-08-04T21:47:26.147Z,1.10
2022-08-04T21:50:13.583Z,1.20
2022-08-04T21:52:51.277Z,1.20
2022-08-04T21:55:19.350Z,1.20
2022-08-04T21:57:46.863Z,1.10
2022-08-04T22:00:19.497Z,1.00
2022-08-04T22:05:34.488Z,1.05
2022-08-04T22:08:01.901Z,0.98
2022-08-04T22:10:33.016Z,0.80
2022-08-04T22:13:07.206Z,0.82
2022-08-04T22:16:05.124Z,0.95
2022-08-04T22:18:24.465Z,1.30
2022-08-04T22:20:54.441Z,1.17
2022-08-04T22:23:25.307Z,0.90
2022-08-04T22:25:55.421Z,1.35
2022-08-04T22:28:27.108Z,0.77
2022-08-04T22:30:57.357Z,0.80
2022-08-04T22:33:53.733Z,1.20
2022-08-04T22:36:13.284Z,0.90
2022-08-04T22:38:48.651Z,1.20
2022-08-04T22:41:21.708Z,0.90
2022-08-04T22:44:01.184Z,0.80
2022-08-04T22:46:30.208Z,1.30
2022-08-04T22:48:57.212Z,1.75
2022-08-04T22:51:27.064Z,1.02
2022-08-04T22:53:54.569Z,1.73
2022-08-04T22:56:37.192Z,0.98
2022-08-04T22:59:06.696Z,1.20
2022-08-04T23:02:00.820Z,1.17
2022-08-04T23:04:24.339Z,1.20
2022-08-04T23:06:54.725Z,1.70
2022-08-04T23:09:49.395Z,2.60
2022-08-04T23:12:25.000Z,1.42
2022-08-04T23:14:54.888Z,1.10
2022-08-04T23:17:23.099Z,1.20
2022-08-04T23:19:58.081Z,1.50
2022-08-04T23:22:42.335Z,1.10
2022-08-04T23:25:16.561Z,1.33
2022-08-04T23:27:48.190Z,1.40
2022-08-04T23:30:21.677Z,1.25
2022-08-04T23:32:51.886Z,1.15
2022-08-04T23:35:19.289Z,1.30
2022-08-04T23:37:57.174Z,1.50
2022-08-04T23:40:32.421Z,1.30
2022-08-04T23:43:17.296Z,1.55
2022-08-04T23:46:07.072Z,1.67
2022-08-04T23:48:36.572Z,0.90
2022-08-04T23:51:14.528Z,1.75
2022-08-04T23:54:02.253Z,1.38
2022-08-04T23:56:32.527Z,1.55
2022-08-04T23:59:00.428Z,1.50
